Time;durP1;ratioP1;P1;durP2;ratioP2;P2;SDS_P1;SDS_P2;PMS_P1;PMS_P2;Temp;Humidity;BMP_temperature;BMP_pressure;BME280_temperature;BME280_humidity;BME280_pressure;Samples;Min_cycle;Max_cycle;Signal;HPM_P1;HPM_P2
2022/04/15 00:02:01;;;;;;;2.63;1.92;;;18.30;52.40;;;;;;6221928;23;20189;-85
2022/04/15 00:04:29;;;;;;;2.50;2.00;;;18.30;52.40;;;;;;6196238;23;20156;-86
2022/04/15 00:06:55;;;;;;;3.70;2.08;;;18.30;52.40;;;;;;6146422;23;20200;-86
2022/04/15 00:09:21;;;;;;;3.72;2.10;;;18.20;52.40;;;;;;6196339;23;20149;-86
2022/04/15 00:11:47;;;;;;;2.13;1.90;;;18.30;52.30;;;;;;6195960;23;20232;-87
2022/04/15 00:14:14;;;;;;;2.55;1.77;;;18.30;52.40;;;;;;6196666;23;20149;-88
2022/04/15 00:16:43;;;;;;;2.55;2.00;;;18.30;52.40;;;;;;6196475;23;20191;-84
2022/04/15 00:19:11;;;;;;;2.17;1.92;;;18.20;52.30;;;;;;6196573;23;20511;-85
2022/04/15 00:21:36;;;;;;;2.17;1.77;;;18.20;52.20;;;;;;6196486;23;20134;-85
2022/04/15 00:24:02;;;;;;;1.85;1.58;;;18.30;52.50;;;;;;6171306;23;20168;-86
2022/04/15 00:26:28;;;;;;;2.33;1.85;;;18.20;52.50;;;;;;6196615;23;20615;-85
2022/04/15 00:28:53;;;;;;;2.53;2.00;;;18.20;52.50;;;;;;6171300;23;20577;-85
2022/04/15 00:31:20;;;;;;;2.50;1.83;;;18.20;52.50;;;;;;6171507;23;20137;-86
2022/04/15 00:33:46;;;;;;;2.60;1.85;;;18.20;52.40;;;;;;6196550;23;20134;-84
2022/04/15 00:36:11;;;;;;;2.33;1.90;;;18.10;52.40;;;;;;6196529;23;20197;-86
2022/04/15 00:38:39;;;;;;;2.70;1.80;;;18.20;52.50;;;;;;6196614;23;20166;-87
2022/04/15 00:41:12;;;;;;;2.10;1.83;;;18.20;52.40;;;;;;6171335;23;20176;-85
2022/04/15 00:43:41;;;;;;;2.65;1.90;;;18.20;52.60;;;;;;6148550;23;20228;-85
2022/04/15 00:46:09;;;;;;;2.40;1.80;;;18.20;52.40;;;;;;6145969;23;20198;-85
2022/04/15 00:48:37;;;;;;;2.00;1.80;;;18.20;52.40;;;;;;6170701;23;20160;-87
2022/04/15 00:51:07;;;;;;;2.08;1.88;;;18.20;52.50;;;;;;6146591;23;20153;-86
2022/04/15 00:53:34;;;;;;;2.03;1.80;;;18.20;52.50;;;;;;6170776;23;20207;-86
2022/04/15 00:56:06;;;;;;;2.13;1.92;;;18.20;52.50;;;;;;6121468;23;20149;-86
2022/04/15 00:58:33;;;;;;;3.50;2.45;;;18.20;52.50;;;;;;6221444;23;20169;-85
2022/04/15 01:00:58;;;;;;;2.42;2.00;;;18.20;52.50;;;;;;6145111;23;20201;-84
2022/04/15 01:03:28;;;;;;;3.58;1.88;;;18.20;52.70;;;;;;6171114;23;20145;-86
2022/04/15 01:05:57;;;;;;;1.88;1.67;;;18.20;52.50;;;;;;6171066;23;20188;-85
2022/04/15 01:08:27;;;;;;;2.28;1.95;;;18.20;52.60;;;;;;6171989;23;20169;-85
2022/04/15 01:10:54;;;;;;;3.53;1.98;;;18.10;52.50;;;;;;6196085;23;20511;-87
2022/04/15 01:13:20;;;;;;;2.40;2.00;;;18.20;52.50;;;;;;6195836;23;20570;-85
2022/04/15 01:15:49;;;;;;;2.72;1.73;;;18.20;52.60;;;;;;6171830;23;20142;-84
2022/04/15 01:18:17;;;;;;;2.45;1.90;;;18.20;52.60;;;;;;6171176;23;20180;-85
2022/04/15 01:20:47;;;;;;;2.67;1.65;;;18.20;52.70;;;;;;6145486;23;20593;-85
2022/04/15 01:23:13;;;;;;;3.10;2.00;;;18.20;52.40;;;;;;6169944;23;20180;-84
2022/04/15 01:25:43;;;;;;;2.63;2.10;;;18.20;52.70;;;;;;6220805;23;20149;-86
2022/04/15 01:28:17;;;;;;;2.40;2.00;;;18.20;52.60;;;;;;6170225;23;20156;-86
2022/04/15 01:30:48;;;;;;;1.98;1.77;;;18.20;52.60;;;;;;6172778;23;20149;-86
2022/04/15 01:33:13;;;;;;;2.10;1.70;;;18.20;52.60;;;;;;6145163;23;20175;-86
2022/04/15 01:35:41;;;;;;;2.92;2.15;;;18.20;52.70;;;;;;6170962;23;20565;-86
2022/04/15 01:38:14;;;;;;;2.15;1.67;;;18.10;52.60;;;;;;6195313;23;20202;-85
2022/04/15 01:40:42;;;;;;;2.67;1.80;;;18.10;52.60;;;;;;6197593;23;20232;-85
2022/04/15 01:43:12;;;;;;;2.33;1.92;;;18.20;52.60;;;;;;6170159;23;20153;-87
2022/04/15 01:45:38;;;;;;;3.03;2.15;;;18.20;52.70;;;;;;6120890;23;20214;-87
2022/04/15 01:48:06;;;;;;;2.60;1.77;;;18.10;52.50;;;;;;6170325;23;20157;-85
2022/04/15 01:50:33;;;;;;;2.13;1.92;;;18.10;52.60;;;;;;6145939;23;20153;-84
2022/04/15 01:52:59;;;;;;;2.13;1.80;;;18.10;52.70;;;;;;6145575;23;20146;-84
2022/04/15 01:55:25;;;;;;;2.55;2.00;;;18.10;52.60;;;;;;6195908;23;20164;-87
2022/04/15 01:57:53;;;;;;;3.33;1.85;;;18.10;52.60;;;;;;6196322;23;20161;-86
2022/04/15 02:00:19;;;;;;;2.20;1.70;;;18.10;52.70;;;;;;6195257;23;20457;-85
2022/04/15 02:02:49;;;;;;;2.45;1.77;;;18.10;52.70;;;;;;6220034;23;20256;-86
2022/04/15 02:05:16;;;;;;;2.08;1.88;;;18.10;52.70;;;;;;6120981;23;20154;-87
2022/04/15 02:07:43;;;;;;;2.08;1.80;;;18.10;52.70;;;;;;6170466;23;20157;-86
2022/04/15 02:10:14;;;;;;;2.35;2.08;;;18.10;52.60;;;;;;6147316;23;20573;-85
2022/04/15 02:12:41;;;;;;;2.20;1.92;;;18.10;52.80;;;;;;6197728;23;20138;-85
2022/04/15 02:15:08;;;;;;;2.50;1.77;;;18.00;52.60;;;;;;6147244;23;20158;-86
2022/04/15 02:17:34;;;;;;;2.20;2.00;;;18.10;52.50;;;;;;6147021;23;20185;-85
2022/04/15 02:20:02;;;;;;;2.08;1.77;;;18.10;52.60;;;;;;6198138;23;20133;-84
2022/04/15 02:22:28;;;;;;;3.22;1.90;;;18.10;52.70;;;;;;6172666;23;20581;-86
2022/04/15 02:24:53;;;;;;;2.40;2.00;;;18.10;52.50;;;;;;6222591;23;20191;-85
2022/04/15 02:27:20;;;;;;;2.50;1.90;;;18.10;52.60;;;;;;6172287;23;20176;-86
2022/04/15 02:29:45;;;;;;;4.57;2.03;;;18.10;52.80;;;;;;6197456;23;20608;-85
2022/04/15 02:32:11;;;;;;;2.28;2.08;;;18.10;52.60;;;;;;6173258;23;20141;-87
2022/04/15 02:34:38;;;;;;;2.10;1.80;;;18.10;52.70;;;;;;6172341;23;20219;-84
2022/04/15 02:37:05;;;;;;;1.88;1.65;;;18.10;52.60;;;;;;6172286;23;20150;-86
2022/04/15 02:39:32;;;;;;;2.38;2.13;;;18.10;52.60;;;;;;6122680;23;20195;-86
2022/04/15 02:42:02;;;;;;;2.20;2.00;;;18.10;52.70;;;;;;6172605;23;20161;-85
2022/04/15 02:44:32;;;;;;;2.17;1.92;;;18.10;52.70;;;;;;6171843;23;20175;-85
2022/04/15 02:46:59;;;;;;;2.38;1.90;;;18.10;52.50;;;;;;6171937;23;20150;-86
2022/04/15 02:49:28;;;;;;;2.00;1.80;;;18.10;52.60;;;;;;6197517;23;20126;-86
2022/04/15 02:51:58;;;;;;;1.98;1.70;;;18.10;52.50;;;;;;6147584;23;20156;-86
2022/04/15 02:54:27;;;;;;;2.60;2.10;;;18.10;52.50;;;;;;6122266;23;20149;-86
2022/04/15 02:56:52;;;;;;;2.42;2.03;;;18.10;52.60;;;;;;6197599;23;20153;-86
2022/04/15 02:59:21;;;;;;;1.92;1.73;;;18.10;52.80;;;;;;6222653;23;20220;-87
2022/04/15 03:01:49;;;;;;;2.47;1.80;;;18.00;52.60;;;;;;6146357;23;20254;-85
2022/04/15 03:04:15;;;;;;;2.10;1.90;;;18.00;52.50;;;;;;6172703;23;20145;-86
2022/04/15 03:06:45;;;;;;;2.03;1.83;;;18.10;52.70;;;;;;6197435;23;20160;-85
2022/04/15 03:09:18;;;;;;;2.72;2.00;;;18.10;52.70;;;;;;6171526;23;20484;-85
2022/04/15 03:11:46;;;;;;;2.40;1.90;;;18.00;52.80;;;;;;6147108;23;20284;-86
2022/04/15 03:14:17;;;;;;;2.00;1.75;;;18.00;52.80;;;;;;6171476;23;20153;-86
2022/04/15 03:16:45;;;;;;;2.25;1.83;;;18.00;52.70;;;;;;6123020;23;20153;-84
2022/04/15 03:19:13;;;;;;;2.55;1.77;;;18.10;52.80;;;;;;6146349;23;20181;-84
2022/04/15 03:21:40;;;;;;;1.88;1.73;;;18.00;52.80;;;;;;6171135;23;20160;-85
2022/04/15 03:24:08;;;;;;;3.33;2.03;;;18.00;52.70;;;;;;6171519;23;20156;-85
2022/04/15 03:26:36;;;;;;;2.22;1.92;;;18.00;52.80;;;;;;6171364;23;20160;-86
2022/04/15 03:29:01;;;;;;;2.42;1.80;;;18.00;52.80;;;;;;6146702;23;20163;-86
2022/04/15 03:31:27;;;;;;;2.75;2.20;;;18.00;52.80;;;;;;6172064;23;20169;-85
2022/04/15 03:33:55;;;;;;;2.33;1.77;;;18.00;52.70;;;;;;6172798;23;20160;-85
2022/04/15 03:36:22;;;;;;;1.73;1.55;;;18.10;52.80;;;;;;6146618;23;20244;-86
2022/04/15 03:38:49;;;;;;;2.25;1.90;;;18.00;52.80;;;;;;6122473;23;20185;-85
2022/04/15 03:41:19;;;;;;;2.40;1.88;;;18.10;52.70;;;;;;6146892;23;20173;-86
2022/04/15 03:43:46;;;;;;;2.30;1.73;;;18.00;52.80;;;;;;6171440;23;20604;-85
2022/04/15 03:46:14;;;;;;;2.15;1.90;;;18.00;52.70;;;;;;6171052;23;20149;-87
2022/04/15 03:48:41;;;;;;;2.00;1.80;;;18.00;52.80;;;;;;6171238;23;20156;-86
2022/04/15 03:51:08;;;;;;;1.98;1.73;;;18.00;52.70;;;;;;6170614;23;20157;-86
2022/04/15 03:53:36;;;;;;;2.00;1.80;;;18.10;52.90;;;;;;6171047;23;20149;-85
2022/04/15 03:56:03;;;;;;;2.97;2.00;;;18.00;52.80;;;;;;6146160;23;20157;-85
2022/04/15 03:58:30;;;;;;;2.55;2.00;;;18.00;52.80;;;;;;6170799;23;20193;-85
2022/04/15 04:00:55;;;;;;;2.50;1.98;;;18.00;52.70;;;;;;6146296;23;20213;-84
2022/04/15 04:03:25;;;;;;;1.70;1.60;;;18.00;52.80;;;;;;6222438;23;20211;-86
2022/04/15 04:05:53;;;;;;;2.03;1.83;;;18.00;52.80;;;;;;6146263;23;20240;-85
2022/04/15 04:08:22;;;;;;;2.00;1.80;;;18.00;53.00;;;;;;6171055;23;20215;-84
2022/04/15 04:10:52;;;;;;;2.22;1.80;;;18.00;53.40;;;;;;6171470;23;20185;-86
2022/04/15 04:13:22;;;;;;;3.15;2.13;;;18.00;52.70;;;;;;6146679;23;20153;-85
2022/04/15 04:15:50;;;;;;;2.53;2.08;;;18.00;52.90;;;;;;6171704;23;20236;-87
2022/04/15 04:18:17;;;;;;;3.10;2.03;;;18.00;52.80;;;;;;6146751;23;20189;-85
2022/04/15 04:20:44;;;;;;;1.92;1.73;;;18.00;52.80;;;;;;6173357;23;20146;-85
2022/04/15 04:23:10;;;;;;;2.00;1.80;;;18.00;52.90;;;;;;6196810;23;20126;-86
2022/04/15 04:25:36;;;;;;;3.60;2.15;;;18.00;53.00;;;;;;6197054;23;20152;-86
2022/04/15 04:28:02;;;;;;;1.90;1.70;;;17.90;52.90;;;;;;6221857;23;20137;-85
2022/04/15 04:30:31;;;;;;;2.65;1.90;;;18.00;53.00;;;;;;6171390;23;20157;-84
2022/04/15 04:32:59;;;;;;;3.38;1.98;;;18.00;52.90;;;;;;6221645;23;20558;-86
2022/04/15 04:35:27;;;;;;;2.20;2.00;;;17.90;53.00;;;;;;6221358;23;20184;-87
2022/04/15 04:37:54;;;;;;;2.50;1.80;;;18.00;53.10;;;;;;6220880;23;20219;-85
2022/04/15 04:40:24;;;;;;;2.90;1.80;;;17.90;53.10;;;;;;6247958;23;20130;-86
2022/04/15 04:42:53;;;;;;;2.38;1.90;;;17.90;53.00;;;;;;6145544;23;20502;-86
2022/04/15 04:45:19;;;;;;;2.47;1.77;;;17.90;52.90;;;;;;6145893;23;20176;-85
2022/04/15 04:47:48;;;;;;;2.47;1.65;;;17.90;52.70;;;;;;6222294;23;20570;-84
2022/04/15 04:50:16;;;;;;;1.75;1.65;;;18.00;52.60;;;;;;6171848;23;20160;-87
2022/04/15 04:52:46;;;;;;;2.25;1.65;;;18.00;52.90;;;;;;6171516;23;20236;-86
2022/04/15 04:55:17;;;;;;;2.03;1.83;;;18.00;52.80;;;;;;6173726;23;20157;-86
2022/04/15 04:57:45;;;;;;;2.30;1.60;;;18.10;52.10;;;;;;6153687;23;20259;-85
2022/04/15 05:00:15;;;;;;;2.03;1.85;;;18.10;51.90;;;;;;6176639;23;20485;-84
2022/04/15 05:02:44;;;;;;;1.60;1.48;;;18.20;51.70;;;;;;6179769;23;20250;-85
2022/04/15 05:05:16;;;;;;;1.60;1.50;;;18.20;50.90;;;;;;6204036;23;20136;-85
2022/04/15 05:07:50;;;;;;;2.22;1.77;;;18.20;50.70;;;;;;6250510;23;20137;-86
2022/04/15 05:10:16;;;;;;;2.35;1.90;;;18.30;51.10;;;;;;6169206;23;20183;-86
2022/04/15 05:12:42;;;;;;;1.58;1.48;;;18.30;51.10;;;;;;6197387;23;20473;-86
2022/04/15 05:15:09;;;;;;;1.90;1.65;;;18.30;51.10;;;;;;6172387;23;20138;-88
2022/04/15 05:17:34;;;;;;;1.63;1.52;;;18.30;51.10;;;;;;6195412;23;20184;-87
2022/04/15 05:20:05;;;;;;;1.70;1.60;;;18.30;51.20;;;;;;6195153;23;20134;-88
2022/04/15 05:22:32;;;;;;;1.92;1.73;;;18.40;51.00;;;;;;6169937;23;20176;-86
2022/04/15 05:25:00;;;;;;;2.72;1.98;;;18.40;51.30;;;;;;6169595;23;20236;-88
2022/04/15 05:27:28;;;;;;;1.77;1.67;;;18.40;50.90;;;;;;6169048;23;20511;-86
2022/04/15 05:29:54;;;;;;;1.70;1.60;;;18.40;50.90;;;;;;6194471;23;20140;-87
2022/04/15 05:32:22;;;;;;;2.13;1.90;;;18.40;51.30;;;;;;6170148;23;20153;-87
2022/04/15 05:34:47;;;;;;;1.55;1.45;;;18.40;50.90;;;;;;6170188;23;20137;-88
2022/04/15 05:37:14;;;;;;;2.72;1.83;;;18.40;50.50;;;;;;6194703;23;20640;-87
2022/04/15 05:39:40;;;;;;;2.03;1.75;;;18.40;50.80;;;;;;6219478;23;20488;-87
2022/04/15 05:42:06;;;;;;;3.38;1.67;;;18.40;50.90;;;;;;6194882;23;20263;-87
2022/04/15 05:44:32;;;;;;;2.15;1.60;;;18.40;50.30;;;;;;6171804;23;20137;-87
2022/04/15 05:46:59;;;;;;;1.92;1.58;;;18.40;50.50;;;;;;6221613;23;20544;-87
2022/04/15 05:49:25;;;;;;;1.90;1.73;;;18.50;50.60;;;;;;6221218;23;20565;-87
2022/04/15 05:51:55;;;;;;;2.33;1.83;;;18.40;50.80;;;;;;6221576;23;20179;-88
2022/04/15 05:54:21;;;;;;;2.05;1.73;;;18.50;50.10;;;;;;6170690;23;20211;-86
2022/04/15 05:56:47;;;;;;;1.85;1.60;;;18.50;50.50;;;;;;6221593;23;20130;-87
2022/04/15 05:59:13;;;;;;;1.98;1.58;;;18.50;50.40;;;;;;6196371;23;20257;-86
2022/04/15 06:01:39;;;;;;;2.33;1.50;;;18.50;50.40;;;;;;6221205;23;20637;-88
2022/04/15 06:04:04;;;;;;;2.00;1.80;;;18.50;50.30;;;;;;6196134;23;20232;-87
2022/04/15 06:06:30;;;;;;;2.67;1.80;;;18.50;50.80;;;;;;6171519;23;20624;-87
2022/04/15 06:08:56;;;;;;;6.22;1.88;;;18.50;50.50;;;;;;6196561;23;20129;-87
2022/04/15 06:11:21;;;;;;;6.10;1.65;;;18.50;50.60;;;;;;6221897;23;20125;-87
2022/04/15 06:13:51;;;;;;;8.57;1.70;;;18.40;50.60;;;;;;6171205;23;20141;-87
2022/04/15 06:16:20;;;;;;;2.45;1.80;;;18.50;50.70;;;;;;6221492;23;20130;-86
2022/04/15 06:18:46;;;;;;;3.55;1.65;;;18.50;50.90;;;;;;6196290;23;20590;-87
2022/04/15 06:21:12;;;;;;;2.75;1.83;;;18.50;51.00;;;;;;6195185;23;20130;-88
2022/04/15 06:23:41;;;;;;;2.15;1.83;;;18.50;51.20;;;;;;6221126;23;20130;-86
2022/04/15 06:26:07;;;;;;;2.42;1.52;;;18.50;50.80;;;;;;6221238;23;20159;-86
2022/04/15 06:28:34;;;;;;;1.92;1.63;;;18.50;50.60;;;;;;6249034;23;20565;-87
2022/04/15 06:31:00;;;;;;;1.60;1.45;;;18.50;50.70;;;;;;6173893;23;20172;-87
2022/04/15 06:33:26;;;;;;;1.52;1.42;;;18.50;50.80;;;;;;6172082;23;20224;-87
2022/04/15 06:35:52;;;;;;;2.65;1.60;;;18.50;50.50;;;;;;6196977;23;20145;-87
2022/04/15 06:38:18;;;;;;;2.55;1.63;;;18.50;50.50;;;;;;6221404;23;20177;-87
2022/04/15 06:40:44;;;;;;;2.53;1.60;;;18.50;50.30;;;;;;6171238;23;20149;-86
2022/04/15 06:43:11;;;;;;;1.83;1.50;;;18.60;50.40;;;;;;6196966;23;20133;-85
2022/04/15 06:45:37;;;;;;;1.77;1.40;;;18.60;50.50;;;;;;6221311;23;20212;-86
2022/04/15 06:48:07;;;;;;;2.13;1.58;;;18.60;50.00;;;;;;6221285;23;20165;-86
2022/04/15 06:50:36;;;;;;;6.82;1.80;;;18.60;49.80;;;;;;6171292;23;20523;-86
2022/04/15 06:53:01;;;;;;;3.30;1.30;;;18.60;50.00;;;;;;6145631;23;20283;-86
2022/04/15 06:55:31;;;;;;;1.75;1.50;;;18.70;49.80;;;;;;6171341;23;20508;-87
2022/04/15 06:57:59;;;;;;;1.60;1.50;;;18.70;49.70;;;;;;6170041;23;20181;-85
2022/04/15 07:00:30;;;;;;;1.73;1.63;;;18.70;50.10;;;;;;6170238;23;20153;-86
2022/04/15 07:02:58;;;;;;;3.13;1.48;;;18.60;49.90;;;;;;6165060;23;20590;-86
2022/04/15 07:05:26;;;;;;;2.10;1.30;;;18.70;49.80;;;;;;6189987;23;20153;-86
2022/04/15 07:07:56;;;;;;;1.92;1.52;;;18.70;49.40;;;;;;6165163;23;20161;-86
2022/04/15 07:10:24;;;;;;;2.22;1.77;;;18.70;49.60;;;;;;6165573;23;20169;-86
2022/04/15 07:12:52;;;;;;;2.83;1.52;;;18.70;49.60;;;;;;6142078;23;20158;-86
2022/04/15 07:15:23;;;;;;;1.60;1.40;;;18.80;49.70;;;;;;6165647;23;20261;-86
2022/04/15 07:17:53;;;;;;;1.83;1.63;;;18.70;49.80;;;;;;6165666;23;20237;-86
2022/04/15 07:20:21;;;;;;;1.42;1.30;;;18.70;49.60;;;;;;6189611;23;20150;-87
2022/04/15 07:22:54;;;;;;;2.08;1.50;;;18.70;49.30;;;;;;6189837;23;20585;-85
2022/04/15 07:25:21;;;;;;;1.77;1.40;;;18.80;49.40;;;;;;6191219;23;20158;-85
2022/04/15 07:27:49;;;;;;;1.75;1.50;;;18.80;49.30;;;;;;6190534;23;20150;-85
2022/04/15 07:30:17;;;;;;;1.63;1.52;;;18.80;49.10;;;;;;6191269;23;20182;-87
2022/04/15 07:32:49;;;;;;;2.00;1.50;;;18.80;48.80;;;;;;6190828;23;20157;-85
2022/04/15 07:35:19;;;;;;;2.95;1.75;;;18.90;48.70;;;;;;6189970;23;20164;-85
2022/04/15 07:37:46;;;;;;;1.60;1.50;;;18.90;49.20;;;;;;6165009;23;20212;-85
2022/04/15 07:40:13;;;;;;;1.45;1.35;;;18.90;49.20;;;;;;6189707;23;20149;-86
2022/04/15 07:42:41;;;;;;;1.63;1.40;;;18.90;49.00;;;;;;6189151;23;20249;-85
2022/04/15 07:45:11;;;;;;;1.10;1.00;;;18.90;49.10;;;;;;6139673;23;20465;-86
2022/04/15 07:47:38;;;;;;;2.20;1.60;;;18.90;48.90;;;;;;6164713;23;20158;-85
2022/04/15 07:50:05;;;;;;;2.08;1.40;;;18.90;49.30;;;;;;6164175;23;20232;-86
2022/04/15 07:52:33;;;;;;;1.88;1.60;;;18.90;48.70;;;;;;6164625;23;20229;-86
2022/04/15 07:54:59;;;;;;;1.67;1.58;;;18.90;48.60;;;;;;6189525;23;20154;-85
2022/04/15 07:57:28;;;;;;;1.52;1.42;;;18.90;49.10;;;;;;6189238;23;20146;-85
2022/04/15 07:59:54;;;;;;;1.75;1.38;;;18.90;49.20;;;;;;6166318;23;20233;-85
2022/04/15 08:02:21;;;;;;;2.15;1.58;;;19.00;48.90;;;;;;6240864;23;20276;-85
2022/04/15 08:04:47;;;;;;;1.48;1.38;;;18.90;48.50;;;;;;6221353;23;20508;-86
2022/04/15 08:07:13;;;;;;;1.55;1.45;;;18.90;48.80;;;;;;6222201;23;20158;-86
2022/04/15 08:09:39;;;;;;;2.42;1.70;;;19.00;48.70;;;;;;6194785;23;20142;-86
2022/04/15 08:12:08;;;;;;;1.50;1.40;;;19.00;48.60;;;;;;6247691;23;20140;-86
2022/04/15 08:14:34;;;;;;;1.42;1.33;;;19.00;48.70;;;;;;6196014;23;20145;-86
2022/04/15 08:17:00;;;;;;;2.10;1.63;;;19.00;48.50;;;;;;6246917;23;20160;-85
2022/04/15 08:19:26;;;;;;;2.10;1.48;;;18.90;48.80;;;;;;6247393;23;20172;-86
2022/04/15 08:21:52;;;;;;;1.50;1.40;;;18.90;48.40;;;;;;6195939;23;20149;-86
2022/04/15 08:24:19;;;;;;;1.88;1.30;;;19.00;48.30;;;;;;6220857;23;20585;-85
2022/04/15 08:26:45;;;;;;;1.45;1.35;;;19.00;48.10;;;;;;6196432;23;20529;-86
2022/04/15 08:29:11;;;;;;;1.60;1.50;;;19.10;48.30;;;;;;6221293;23;20130;-86
2022/04/15 08:31:41;;;;;;;1.55;1.38;;;19.10;48.40;;;;;;6220678;23;20176;-84
2022/04/15 08:34:07;;;;;;;1.50;1.40;;;19.00;48.20;;;;;;6145601;23;20175;-85
2022/04/15 08:36:33;;;;;;;1.85;1.45;;;19.10;48.00;;;;;;6194967;23;20157;-85
2022/04/15 08:38:59;;;;;;;1.70;1.60;;;19.10;48.20;;;;;;6195907;23;20184;-86
2022/04/15 08:41:25;;;;;;;1.90;1.63;;;19.00;48.50;;;;;;6221011;23;20195;-85
2022/04/15 08:43:50;;;;;;;1.60;1.50;;;19.00;48.60;;;;;;6195464;23;20159;-86
2022/04/15 08:46:18;;;;;;;2.05;1.60;;;19.00;48.30;;;;;;6196297;23;20145;-85
2022/04/15 08:48:44;;;;;;;2.20;1.60;;;19.00;48.40;;;;;;6221365;23;20141;-84
2022/04/15 08:51:09;;;;;;;1.75;1.60;;;19.00;48.20;;;;;;6195939;23;20217;-85
2022/04/15 08:53:36;;;;;;;1.50;1.40;;;19.10;48.10;;;;;;6196350;23;20168;-85
2022/04/15 08:56:02;;;;;;;1.60;1.50;;;19.00;48.20;;;;;;6222560;23;20145;-85
2022/04/15 08:58:28;;;;;;;1.45;1.35;;;19.00;48.20;;;;;;6247902;23;20162;-85
2022/04/15 09:00:54;;;;;;;1.77;1.58;;;19.00;48.20;;;;;;6196414;23;20199;-86
2022/04/15 09:03:25;;;;;;;1.70;1.60;;;19.00;48.20;;;;;;6221409;23;20126;-85
2022/04/15 09:05:51;;;;;;;1.95;1.60;;;19.00;48.50;;;;;;6171622;23;20153;-86
2022/04/15 09:08:17;;;;;;;1.65;1.55;;;19.00;48.20;;;;;;6224875;23;20184;-86
2022/04/15 09:10:44;;;;;;;1.42;1.33;;;19.00;48.70;;;;;;6251645;23;20134;-84
2022/04/15 09:13:20;;;;;;;1.40;1.30;;;19.00;47.80;;;;;;6222324;23;20133;-86
2022/04/15 09:15:45;;;;;;;1.73;1.50;;;19.00;48.00;;;;;;6197407;23;20130;-85
2022/04/15 09:19:16;;;;;;;1.45;1.35;;;19.00;47.80;;;;;;6195916;23;20524;-86
2022/04/15 09:21:20;;;;;;;1.63;1.42;;;19.10;48.20;;;;;;6192255;23;20553;-86
2022/04/15 09:23:48;;;;;;;2.20;1.52;;;19.10;48.00;;;;;;6174157;23;20152;-86
2022/04/15 09:26:15;;;;;;;1.40;1.30;;;19.10;48.50;;;;;;6198424;23;20157;-85
2022/04/15 09:28:41;;;;;;;2.33;1.77;;;19.00;47.80;;;;;;6197401;23;20562;-85
2022/04/15 09:31:13;;;;;;;1.45;1.35;;;19.10;47.70;;;;;;6221923;23;20453;-85
2022/04/15 09:33:56;;;;;;;1.30;1.20;;;19.10;48.10;;;;;;6196550;23;20634;-85
2022/04/15 09:36:27;;;;;;;2.15;1.60;;;19.00;48.00;;;;;;6172712;23;20146;-84
2022/04/15 09:39:10;;;;;;;1.42;1.33;;;19.10;48.20;;;;;;6196902;23;20184;-85
2022/04/15 09:41:37;;;;;;;2.63;1.33;;;19.00;48.20;;;;;;6197013;23;20145;-86
2022/04/15 09:44:03;;;;;;;1.50;1.40;;;19.10;47.70;;;;;;6170715;23;20152;-86
2022/04/15 09:46:30;;;;;;;1.92;1.45;;;19.10;48.10;;;;;;6196234;23;20474;-86
2022/04/15 09:49:03;;;;;;;1.40;1.30;;;19.10;48.30;;;;;;6195894;23;20169;-85
2022/04/15 09:51:30;;;;;;;1.60;1.50;;;19.10;48.50;;;;;;6220082;23;20217;-86
2022/04/15 09:54:01;;;;;;;1.48;1.38;;;19.10;48.30;;;;;;6172032;23;20188;-85
2022/04/15 09:56:26;;;;;;;1.30;1.20;;;19.10;47.70;;;;;;6221530;23;20128;-84
2022/04/15 09:58:55;;;;;;;1.48;1.38;;;19.10;47.70;;;;;;6170862;23;20176;-84
2022/04/15 10:01:22;;;;;;;1.67;1.45;;;19.10;47.70;;;;;;6196713;23;20209;-86
2022/04/15 10:03:49;;;;;;;1.75;1.40;;;19.10;47.50;;;;;;6170459;23;20157;-86
2022/04/15 10:06:15;;;;;;;2.38;1.40;;;19.10;48.10;;;;;;6219415;23;20233;-85
2022/04/15 10:08:42;;;;;;;1.40;1.30;;;19.10;47.60;;;;;;6193373;23;20758;-85
2022/04/15 10:11:09;;;;;;;1.48;1.38;;;19.10;47.90;;;;;;6167496;23;20184;-85
2022/04/15 10:13:37;;;;;;;1.75;1.40;;;19.10;47.90;;;;;;6168088;23;20153;-85
2022/04/15 10:16:04;;;;;;;1.55;1.45;;;19.10;47.50;;;;;;6169081;23;20611;-86
2022/04/15 10:18:32;;;;;;;1.58;1.48;;;19.20;47.60;;;;;;6143938;23;20185;-85
2022/04/15 10:21:03;;;;;;;1.88;1.10;;;19.20;47.70;;;;;;6119692;23;20180;-86
2022/04/15 10:23:30;;;;;;;1.27;1.17;;;19.20;47.10;;;;;;6123147;23;20145;-85
2022/04/15 10:25:59;;;;;;;1.50;1.40;;;19.20;47.50;;;;;;6143882;23;20164;-85
2022/04/15 10:28:39;;;;;;;1.73;1.40;;;19.20;47.40;;;;;;6170389;23;20280;-86
2022/04/15 10:31:16;;;;;;;1.50;1.40;;;19.10;47.50;;;;;;6221761;23;20129;-85
2022/04/15 10:33:43;;;;;;;1.52;1.40;;;19.20;48.00;;;;;;6151946;23;20149;-86
2022/04/15 10:36:13;;;;;;;1.40;1.30;;;19.10;47.30;;;;;;6171238;23;20184;-85
2022/04/15 10:39:17;;;;;;;1.85;1.75;;;19.10;47.70;;;;;;6195491;23;20177;-85
2022/04/15 10:41:53;;;;;;;1.40;1.30;;;19.10;47.50;;;;;;6222240;23;20565;-85
2022/04/15 10:44:28;;;;;;;1.83;1.50;;;19.20;47.50;;;;;;6249399;23;20136;-86
2022/04/15 10:46:58;;;;;;;1.70;1.50;;;19.20;47.80;;;;;;6195872;23;20236;-85
2022/04/15 10:49:27;;;;;;;1.35;1.20;;;19.20;47.60;;;;;;6221013;23;20426;-85
2022/04/15 10:51:58;;;;;;;1.33;1.20;;;19.10;48.20;;;;;;6196184;23;20145;-86
2022/04/15 10:54:46;;;;;;;1.40;1.30;;;19.10;47.20;;;;;;6196771;23;20141;-85
2022/04/15 10:57:14;;;;;;;1.23;1.10;;;19.00;48.10;;;;;;6200767;23;20126;-86
2022/04/15 11:02:38;;;;;;;1.40;1.30;;;19.10;48.10;;;;;;6226502;23;20586;-86
2022/04/15 11:05:05;;;;;;;1.50;1.40;;;19.10;47.60;;;;;;6195600;23;20240;-86
2022/04/15 11:07:57;;;;;;;1.30;1.20;;;19.10;47.80;;;;;;6220913;23;20130;-86
2022/04/15 11:10:45;;;;;;;1.80;1.55;;;19.00;48.20;;;;;;6149304;23;20146;-85
2022/04/15 11:13:50;;;;;;;1.48;1.38;;;19.00;47.90;;;;;;6175854;23;20149;-85
2022/04/15 11:16:18;;;;;;;1.50;1.20;;;19.10;47.50;;;;;;6200300;23;20145;-87
2022/04/15 11:18:47;;;;;;;2.17;1.42;;;19.10;47.50;;;;;;6221144;23;20172;-85
2022/04/15 11:21:21;;;;;;;1.60;1.50;;;19.10;47.10;;;;;;6220614;23;20125;-86
2022/04/15 11:23:54;;;;;;;1.67;1.38;;;19.10;47.80;;;;;;6220697;23;20130;-86
2022/04/15 11:26:21;;;;;;;1.75;1.63;;;19.10;47.10;;;;;;6146176;23;20615;-86
2022/04/15 11:28:48;;;;;;;1.27;1.17;;;19.20;47.00;;;;;;6195699;23;20146;-85
2022/04/15 11:31:27;;;;;;;2.42;1.75;;;19.10;47.30;;;;;;6220634;23;20166;-86
2022/04/15 11:34:10;;;;;;;1.50;1.40;;;19.10;47.30;;;;;;6146513;23;20295;-86
2022/04/15 11:36:39;;;;;;;1.50;1.27;;;19.10;47.30;;;;;;6180122;23;20149;-87
2022/04/15 11:39:06;;;;;;;1.60;1.40;;;19.10;47.10;;;;;;6221954;23;20172;-85
2022/04/15 11:41:33;;;;;;;1.45;1.35;;;19.10;47.40;;;;;;6196482;23;20153;-85
2022/04/15 11:44:01;;;;;;;1.50;1.40;;;19.00;47.20;;;;;;6194910;23;20206;-85
2022/04/15 11:46:41;;;;;;;1.42;1.27;;;19.00;47.40;;;;;;6195463;23;20146;-86
2022/04/15 11:49:22;;;;;;;2.75;1.50;;;19.10;47.20;;;;;;6246853;23;20141;-85
2022/04/15 11:51:50;;;;;;;1.50;1.40;;;19.10;47.40;;;;;;6195296;23;20155;-85
2022/04/15 11:54:21;;;;;;;2.00;1.65;;;19.10;47.50;;;;;;6194743;23;20573;-85
2022/04/15 11:56:46;;;;;;;1.30;1.20;;;19.00;47.30;;;;;;6169841;23;20183;-86
2022/04/15 11:59:13;;;;;;;1.45;1.35;;;19.10;46.70;;;;;;6194720;23;20173;-86
2022/04/15 12:01:38;;;;;;;1.50;1.40;;;19.10;47.40;;;;;;6246278;23;20189;-86
2022/04/15 12:04:05;;;;;;;1.50;1.40;;;19.10;48.00;;;;;;6219585;23;20581;-86
2022/04/15 12:06:31;;;;;;;1.77;1.40;;;19.10;47.70;;;;;;6195899;23;20573;-86
2022/04/15 12:08:57;;;;;;;1.75;1.40;;;19.10;46.70;;;;;;6194812;23;20156;-85
2022/04/15 12:11:25;;;;;;;1.75;1.40;;;19.10;47.50;;;;;;6246710;23;20141;-86
2022/04/15 12:13:59;;;;;;;1.52;1.40;;;19.10;47.10;;;;;;6246508;23;20122;-86
2022/04/15 12:16:29;;;;;;;1.50;1.40;;;19.10;47.30;;;;;;6220455;23;20130;-85
2022/04/15 12:18:56;;;;;;;1.95;1.45;;;19.10;46.90;;;;;;6195168;23;20177;-86
2022/04/15 12:21:22;;;;;;;1.52;1.40;;;19.10;46.90;;;;;;6194975;23;20149;-86
2022/04/15 12:24:04;;;;;;;1.52;1.40;;;19.10;46.70;;;;;;6196242;23;20149;-85
2022/04/15 12:26:44;;;;;;;1.50;1.40;;;19.10;46.40;;;;;;6197526;23;20141;-86
2022/04/15 12:31:49;;;;;;;1.90;1.50;;;19.10;47.30;;;;;;6222477;23;20130;-86
2022/04/15 12:34:28;;;;;;;1.42;1.25;;;19.00;46.90;;;;;;6221056;23;20141;-86
2022/04/15 12:36:54;;;;;;;1.38;1.27;;;19.10;46.60;;;;;;6176108;23;20151;-86
2022/04/15 12:39:20;;;;;;;1.65;1.40;;;19.10;46.20;;;;;;6221473;23;20252;-86
2022/04/15 12:41:48;;;;;;;1.35;1.25;;;19.10;46.70;;;;;;6220329;23;20157;-87
2022/04/15 12:44:15;;;;;;;1.38;1.27;;;19.10;46.40;;;;;;6220517;23;20140;-85
2022/04/15 12:46:43;;;;;;;1.40;1.30;;;19.10;46.20;;;;;;6221738;23;20173;-85
2022/04/15 12:49:25;;;;;;;2.30;1.45;;;19.10;46.00;;;;;;6222142;23;20487;-86
2022/04/15 12:52:14;;;;;;;1.40;1.30;;;19.10;46.00;;;;;;6196440;23;20141;-86
2022/04/15 12:55:02;;;;;;;1.30;1.20;;;19.10;46.40;;;;;;6182408;23;20156;-86
2022/04/15 12:57:31;;;;;;;1.23;1.13;;;19.10;45.80;;;;;;6221655;23;20144;-86
2022/04/15 13:00:01;;;;;;;1.40;1.30;;;19.10;45.70;;;;;;6222689;23;20137;-87
2022/04/15 13:02:28;;;;;;;1.73;1.30;;;19.10;47.00;;;;;;6171625;23;20251;-87